Time;durP1;ratioP1;P1;durP2;ratioP2;P2;SDS_P1;SDS_P2;PMS_P1;PMS_P2;Temp;Humidity;BMP_temperature;BMP_pressure;BME280_temperature;BME280_humidity;BME280_pressure;Samples;Min_cycle;Max_cycle;Signal;HPM_P1;HPM_P2
2022/10/02 00:02:31;;;;;;;16.00;11.15;;;12.10;82.10;;;;;;5013575;28;20022;-15
2022/10/02 00:05:06;;;;;;;13.23;9.50;;;12.20;82.10;;;;;;5013222;28;20030;-15
2022/10/02 00:07:57;;;;;;;16.55;11.75;;;12.20;82.10;;;;;;5013322;28;20095;-15
2022/10/02 00:10:26;;;;;;;16.70;10.85;;;12.30;82.10;;;;;;5019866;28;20098;-15
2022/10/02 00:13:01;;;;;;;15.73;10.90;;;12.30;82.10;;;;;;5032985;28;20022;-16
2022/10/02 00:15:30;;;;;;;14.15;9.57;;;12.30;82.20;;;;;;5033339;28;20017;-15
2022/10/02 00:18:03;;;;;;;12.95;9.50;;;12.30;82.10;;;;;;5033276;28;20026;-15
2022/10/02 00:20:57;;;;;;;17.00;11.75;;;12.30;82.00;;;;;;5033343;28;20033;-15
2022/10/02 00:23:26;;;;;;;;;;;12.30;82.10;;;;;;5024823;28;20041;-15
2022/10/02 00:26:23;;;;;;;13.45;10.07;;;12.30;82.60;;;;;;5033111;28;19905;-15
2022/10/02 00:28:58;;;;;;;21.00;14.32;;;12.20;82.20;;;;;;5032253;28;20038;-15
2022/10/02 00:31:51;;;;;;;13.77;9.32;;;12.20;82.40;;;;;;5032850;28;20034;-15
2022/10/02 00:34:44;;;;;;;16.33;10.18;;;12.20;82.30;;;;;;5033736;28;20051;-16
2022/10/02 00:37:28;;;;;;;15.68;11.35;;;12.20;82.20;;;;;;4933428;29;20047;-15
2022/10/02 00:40:02;;;;;;;17.25;11.65;;;12.30;82.20;;;;;;4933585;29;20031;-16
2022/10/02 00:42:46;;;;;;;;;;;12.20;82.20;;;;;;4933981;29;20039;-16
2022/10/02 00:45:30;;;;;;;14.75;9.52;;;12.20;82.30;;;;;;4934123;29;19907;-17
2022/10/02 00:48:40;;;;;;;10.75;7.45;;;12.20;82.40;;;;;;4933588;29;20502;-15
2022/10/02 00:51:27;;;;;;;14.57;10.68;;;12.30;82.30;;;;;;4895540;29;20021;-15
2022/10/02 00:54:27;;;;;;;17.35;12.35;;;12.30;82.40;;;;;;4895653;29;20028;-16
2022/10/02 00:57:26;;;;;;;14.02;9.45;;;12.30;82.30;;;;;;4895575;29;20037;-15
2022/10/02 01:00:13;;;;;;;17.50;10.73;;;12.20;82.40;;;;;;4894934;29;20037;-15
2022/10/02 01:02:42;;;;;;;15.55;11.82;;;12.20;82.30;;;;;;4895640;29;20060;-16
2022/10/02 01:05:09;;;;;;;14.32;9.02;;;12.20;82.40;;;;;;4895353;29;20040;-15
2022/10/02 01:07:41;;;;;;;14.85;9.88;;;12.20;82.60;;;;;;4895487;29;20052;-15
2022/10/02 01:10:12;;;;;;;13.25;8.38;;;12.20;82.60;;;;;;4895387;29;20111;-15
2022/10/02 01:12:39;;;;;;;11.65;8.57;;;12.20;82.60;;;;;;4895495;29;20580;-15
2022/10/02 01:15:34;;;;;;;15.25;10.63;;;12.20;82.60;;;;;;4970068;28;20074;-16
2022/10/02 01:18:03;;;;;;;15.38;11.07;;;12.20;82.60;;;;;;4974206;28;20043;-15
2022/10/02 01:20:34;;;;;;;14.43;9.35;;;12.20;82.60;;;;;;4975290;28;20106;-16
2022/10/02 01:23:44;;;;;;;15.63;10.80;;;12.20;82.50;;;;;;5034542;28;20038;-16
2022/10/02 01:26:10;;;;;;;15.57;10.68;;;12.10;82.50;;;;;;4936725;29;20028;-16
2022/10/02 01:28:37;;;;;;;11.30;7.97;;;12.10;82.80;;;;;;4936561;29;20040;-17
2022/10/02 01:31:09;;;;;;;12.80;9.13;;;12.00;82.80;;;;;;4936767;29;20036;-15
2022/10/02 01:33:40;;;;;;;12.05;7.80;;;12.00;82.80;;;;;;4936542;29;20110;-18
2022/10/02 01:36:10;;;;;;;12.52;8.60;;;12.00;82.90;;;;;;4937109;29;20031;-17
2022/10/02 01:38:38;;;;;;;11.88;7.72;;;12.00;82.90;;;;;;4936661;29;20131;-16
2022/10/02 01:41:06;;;;;;;14.80;10.32;;;12.00;82.80;;;;;;4935930;29;20486;-15
2022/10/02 01:43:41;;;;;;;14.05;9.82;;;12.00;82.80;;;;;;4936321;29;20547;-15
2022/10/02 01:46:31;;;;;;;17.60;11.40;;;11.90;82.90;;;;;;4936318;29;20034;-15
2022/10/02 01:48:57;;;;;;;12.48;8.85;;;12.00;82.90;;;;;;4935918;29;20035;-16
2022/10/02 01:51:38;;;;;;;14.65;9.40;;;11.90;82.90;;;;;;4936679;29;20044;-16
2022/10/02 01:54:24;;;;;;;11.68;8.35;;;11.90;83.30;;;;;;4936973;29;20103;-16
2022/10/02 01:56:58;;;;;;;10.75;8.05;;;11.90;83.20;;;;;;4936790;28;20514;-16
2022/10/02 01:59:37;;;;;;;16.05;11.13;;;11.90;83.10;;;;;;4974566;28;20035;-15
2022/10/02 02:02:20;;;;;;;18.50;11.38;;;11.90;83.10;;;;;;4958453;28;20479;-15
2022/10/02 02:05:13;;;;;;;12.25;8.52;;;11.90;83.10;;;;;;4974408;28;20089;-15
2022/10/02 02:07:45;;;;;;;16.02;10.30;;;11.90;83.20;;;;;;4958186;28;20146;-15
2022/10/02 02:10:27;;;;;;;13.32;9.60;;;11.80;83.20;;;;;;4974057;28;20141;-17
2022/10/02 02:13:05;;;;;;;12.93;9.07;;;11.80;83.20;;;;;;4973939;28;20434;-16
2022/10/02 02:15:42;;;;;;;11.98;8.93;;;11.90;83.30;;;;;;4974383;28;20093;-16
2022/10/02 02:18:08;;;;;;;9.23;6.75;;;11.80;83.20;;;;;;4974192;28;20537;-16
2022/10/02 02:20:47;;;;;;;9.95;7.22;;;11.80;83.20;;;;;;4974143;28;20039;-16
2022/10/02 02:23:21;;;;;;;14.75;9.70;;;11.80;83.30;;;;;;4974117;28;20118;-16
2022/10/02 02:25:53;;;;;;;9.85;6.55;;;11.70;83.30;;;;;;4974770;28;20367;-15
2022/10/02 02:28:22;;;;;;;11.65;7.93;;;11.70;83.20;;;;;;4974131;28;20039;-16
2022/10/02 02:30:54;;;;;;;10.57;7.43;;;11.70;83.60;;;;;;4973663;28;20023;-16
2022/10/02 02:33:25;;;;;;;9.50;6.57;;;11.70;83.40;;;;;;4989508;28;20405;-16
2022/10/02 02:35:55;;;;;;;10.88;6.65;;;11.70;83.40;;;;;;5035027;28;20053;-15
2022/10/02 02:38:36;;;;;;;9.05;6.20;;;11.70;83.30;;;;;;5034578;28;20025;-15
2022/10/02 02:41:25;;;;;;;9.45;6.25;;;11.70;83.30;;;;;;5034204;28;20125;-16
2022/10/02 02:44:10;;;;;;;11.45;7.00;;;11.70;83.20;;;;;;5016740;28;20075;-16
2022/10/02 02:49:38;;;;;;;12.88;8.18;;;11.60;83.20;;;;;;5034948;28;20036;-16
2022/10/02 02:52:08;;;;;;;11.07;7.55;;;11.50;83.30;;;;;;5034341;28;20045;-16
2022/10/02 02:54:43;;;;;;;12.90;8.80;;;11.50;83.30;;;;;;5034425;28;20507;-16
2022/10/02 02:57:11;;;;;;;11.07;7.05;;;11.50;83.30;;;;;;5034211;28;20036;-15
2022/10/02 02:59:39;;;;;;;11.57;7.95;;;11.50;83.30;;;;;;5034716;28;20072;-16
2022/10/02 03:02:05;;;;;;;14.43;10.27;;;11.50;83.30;;;;;;5034062;28;20036;-16
2022/10/02 03:04:32;;;;;;;11.25;8.20;;;11.50;83.40;;;;;;5034145;28;20021;-15
2022/10/02 03:07:01;;;;;;;15.18;10.40;;;11.50;83.50;;;;;;5034053;28;20469;-18
2022/10/02 03:09:31;;;;;;;14.30;10.18;;;11.40;83.40;;;;;;5033980;28;20060;-16
2022/10/02 03:12:06;;;;;;;15.80;10.23;;;11.40;83.40;;;;;;5033656;28;20042;-16
2022/10/02 03:14:44;;;;;;;12.82;8.70;;;11.40;83.50;;;;;;5034233;28;20030;-16
2022/10/02 03:17:39;;;;;;;13.77;8.90;;;11.40;83.70;;;;;;5033650;28;20064;-16
2022/10/02 03:20:24;;;;;;;9.25;6.57;;;11.40;83.60;;;;;;4996028;28;20021;-17
2022/10/02 03:23:07;;;;;;;10.55;6.75;;;11.40;83.70;;;;;;5033539;28;20026;-16
2022/10/02 03:25:59;;;;;;;14.10;9.48;;;11.40;83.70;;;;;;5033983;28;20017;-17
2022/10/02 03:28:31;;;;;;;13.35;8.93;;;11.40;83.70;;;;;;5033579;28;20037;-15
2022/10/02 03:30:58;;;;;;;10.02;6.90;;;11.30;83.90;;;;;;5033378;28;20385;-16
2022/10/02 03:33:26;;;;;;;8.60;5.55;;;11.30;83.90;;;;;;5033511;28;20029;-15
2022/10/02 03:35:54;;;;;;;9.82;6.68;;;11.30;83.80;;;;;;5033772;28;20104;-16
2022/10/02 03:38:22;;;;;;;10.93;7.18;;;11.20;83.90;;;;;;5033050;28;20029;-16
2022/10/02 03:40:51;;;;;;;12.07;6.97;;;11.30;83.90;;;;;;5033737;28;20022;-16
2022/10/02 03:43:22;;;;;;;12.65;8.57;;;11.30;83.90;;;;;;5033758;28;20028;-16
2022/10/02 03:45:48;;;;;;;12.98;8.98;;;11.30;83.80;;;;;;5033653;28;20409;-16
2022/10/02 03:48:15;;;;;;;15.00;8.57;;;11.20;83.80;;;;;;5015712;28;20029;-16
2022/10/02 03:50:41;;;;;;;13.05;9.30;;;11.30;84.00;;;;;;5033278;28;20501;-17
2022/10/02 03:53:15;;;;;;;13.25;9.43;;;11.30;83.90;;;;;;5033043;28;20481;-18
2022/10/02 03:55:56;;;;;;;12.60;8.05;;;11.30;84.00;;;;;;5033509;28;20022;-16
2022/10/02 03:58:22;;;;;;;11.68;7.10;;;11.30;84.10;;;;;;5033245;28;20030;-15
2022/10/02 04:01:15;;;;;;;12.27;7.10;;;11.30;84.20;;;;;;5033352;28;20036;-18
2022/10/02 04:03:56;;;;;;;14.40;9.10;;;11.20;84.00;;;;;;5003906;28;20037;-18
2022/10/02 04:06:36;;;;;;;8.00;5.80;;;11.30;84.10;;;;;;5033429;28;20466;-16
2022/10/02 04:09:32;;;;;;;9.30;6.70;;;11.30;84.00;;;;;;5033080;28;20129;-15
2022/10/02 04:12:25;;;;;;;11.65;6.78;;;11.30;84.10;;;;;;5032926;28;20049;-16
2022/10/02 04:15:05;;;;;;;8.98;6.43;;;11.30;84.00;;;;;;5033019;28;20025;-16
2022/10/02 04:18:02;;;;;;;12.75;7.68;;;11.30;84.10;;;;;;5033613;28;20034;-16
2022/10/02 04:21:01;;;;;;;8.73;5.82;;;11.30;84.00;;;;;;5007754;28;20041;-16
2022/10/02 04:23:44;;;;;;;11.25;5.97;;;11.30;84.00;;;;;;5032866;28;20416;-16
2022/10/02 04:26:20;;;;;;;13.63;8.80;;;11.30;84.10;;;;;;5033203;28;20057;-16
2022/10/02 04:28:54;;;;;;;13.15;9.07;;;11.20;84.00;;;;;;5032873;28;20036;-16
2022/10/02 04:31:20;;;;;;;10.43;7.65;;;11.30;84.00;;;;;;5015274;28;20401;-16
2022/10/02 04:33:46;;;;;;;13.45;8.43;;;11.20;84.10;;;;;;5033154;28;20034;-16
2022/10/02 04:36:49;;;;;;;11.48;8.45;;;11.20;84.10;;;;;;5032753;28;20028;-16
2022/10/02 04:39:27;;;;;;;11.70;7.43;;;11.20;84.10;;;;;;4934107;29;20046;-16
2022/10/02 04:42:22;;;;;;;8.88;6.22;;;11.20;84.20;;;;;;4933592;29;20031;-17
2022/10/02 04:44:56;;;;;;;9.52;6.60;;;11.20;84.10;;;;;;4933475;29;20032;-18
2022/10/02 04:47:32;;;;;;;13.32;8.27;;;11.20;84.10;;;;;;4933885;29;20078;-15
2022/10/02 04:50:25;;;;;;;12.90;8.55;;;11.10;84.20;;;;;;4935208;29;20083;-17
2022/10/02 04:53:15;;;;;;;12.13;7.57;;;11.10;84.20;;;;;;4937100;29;20599;-16
2022/10/02 04:55:44;;;;;;;12.57;8.00;;;11.00;84.20;;;;;;4937837;29;20051;-18
2022/10/02 04:58:15;;;;;;;10.52;7.25;;;11.10;84.30;;;;;;4937064;29;20111;-16
2022/10/02 05:01:09;;;;;;;13.43;8.73;;;11.10;84.30;;;;;;4937086;29;20039;-16
2022/10/02 05:04:08;;;;;;;9.15;6.53;;;11.10;84.40;;;;;;4937307;29;20046;-16
2022/10/02 05:07:00;;;;;;;7.93;5.72;;;11.00;84.60;;;;;;4937938;29;20055;-16
2022/10/02 05:09:36;;;;;;;8.88;6.60;;;11.00;84.70;;;;;;4936989;29;20040;-16
2022/10/02 05:12:22;;;;;;;7.22;5.32;;;11.00;84.50;;;;;;4936848;29;20070;-16
2022/10/02 05:15:10;;;;;;;8.48;6.38;;;11.00;84.40;;;;;;4956382;28;20025;-17
2022/10/02 05:18:04;;;;;;;8.98;5.90;;;11.00;84.40;;;;;;5036416;28;20171;-16
2022/10/02 05:20:42;;;;;;;13.45;7.45;;;11.00;84.30;;;;;;4990117;28;20063;-16
2022/10/02 05:23:17;;;;;;;10.60;6.50;;;11.00;84.50;;;;;;5036525;28;20033;-16
2022/10/02 05:26:11;;;;;;;6.90;4.75;;;11.00;84.40;;;;;;5036423;28;20057;-16
2022/10/02 05:29:06;;;;;;;10.00;6.18;;;11.00;84.40;;;;;;5036036;28;20366;-16
2022/10/02 05:31:45;;;;;;;9.98;6.63;;;11.00;84.40;;;;;;5036333;28;20025;-16
2022/10/02 05:34:17;;;;;;;13.00;9.07;;;11.10;84.40;;;;;;5036402;28;20481;-15
2022/10/02 05:36:48;;;;;;;12.07;8.85;;;11.10;84.40;;;;;;5036365;28;20095;-16
2022/10/02 05:39:27;;;;;;;11.27;7.88;;;11.10;84.50;;;;;;5035667;28;20032;-15
2022/10/02 05:42:22;;;;;;;12.90;8.75;;;11.10;84.40;;;;;;5035891;28;20025;-15
2022/10/02 05:44:58;;;;;;;10.68;7.20;;;11.20;84.40;;;;;;5035733;28;20128;-17
2022/10/02 05:47:29;;;;;;;12.55;7.55;;;11.20;84.60;;;;;;5035986;28;20032;-15
2022/10/02 05:49:59;;;;;;;12.38;6.05;;;11.30;84.60;;;;;;5035925;28;20018;-15
2022/10/02 05:52:36;;;;;;;10.23;6.40;;;11.40;84.70;;;;;;5035748;28;20025;-17
2022/10/02 05:55:15;;;;;;;11.75;7.35;;;11.40;84.80;;;;;;5035430;28;20021;-16
2022/10/02 05:57:52;;;;;;;14.13;9.15;;;11.50;84.80;;;;;;5035301;28;20396;-15
2022/10/02 06:00:43;;;;;;;43.10;34.63;;;11.60;84.80;;;;;;5035345;28;20021;-17
2022/10/02 06:03:16;;;;;;;21.27;17.52;;;11.80;85.10;;;;;;5035078;28;20128;-16
2022/10/02 06:05:57;;;;;;;13.18;9.75;;;12.00;85.20;;;;;;5018174;28;20025;-18
2022/10/02 06:08:39;;;;;;;13.65;10.75;;;12.20;85.40;;;;;;5035363;28;20156;-16
2022/10/02 06:11:18;;;;;;;11.93;8.65;;;12.30;85.20;;;;;;5034718;28;20060;-17
2022/10/02 06:14:09;;;;;;;12.98;8.68;;;12.40;85.10;;;;;;5035709;28;20018;-15
2022/10/02 06:16:43;;;;;;;9.52;6.75;;;12.60;84.80;;;;;;5035381;28;20071;-15
2022/10/02 06:19:18;;;;;;;10.65;7.60;;;12.60;84.60;;;;;;5034744;28;20512;-16
2022/10/02 06:21:59;;;;;;;9.38;6.75;;;12.70;84.40;;;;;;5035285;28;20029;-16
2022/10/02 06:24:40;;;;;;;10.80;8.10;;;12.80;84.20;;;;;;5034849;28;20026;-16
2022/10/02 06:27:36;;;;;;;11.35;8.65;;;12.90;84.20;;;;;;5034269;28;20095;-15
2022/10/02 06:30:09;;;;;;;9.27;7.35;;;13.00;84.00;;;;;;5035008;28;20426;-17
2022/10/02 06:33:00;;;;;;;9.82;7.55;;;13.10;84.10;;;;;;5035062;28;20121;-18
2022/10/02 06:35:51;;;;;;;9.65;7.10;;;13.30;83.50;;;;;;5034968;28;20060;-15
2022/10/02 06:38:35;;;;;;;11.00;8.20;;;13.70;83.50;;;;;;5034602;28;20049;-17
2022/10/02 06:41:10;;;;;;;;;;;14.00;83.20;;;;;;5034837;28;20029;-15
2022/10/02 06:43:45;;;;;;;9.05;6.75;;;14.20;83.10;;;;;;5034865;28;19967;-17
2022/10/02 06:46:21;;;;;;;11.30;8.05;;;14.30;82.40;;;;;;5034675;28;20036;-15
2022/10/02 06:49:01;;;;;;;8.43;6.20;;;14.40;82.30;;;;;;5034563;28;20106;-23
2022/10/02 06:51:34;;;;;;;8.57;6.68;;;14.40;82.20;;;;;;5034674;28;20542;-16
2022/10/02 06:54:39;;;;;;;9.85;7.13;;;14.50;82.10;;;;;;5034393;28;20492;-16
2022/10/02 06:57:47;;;;;;;8.85;5.85;;;14.50;82.30;;;;;;5017378;28;20507;-16
2022/10/02 07:00:20;;;;;;;8.40;5.80;;;14.60;82.10;;;;;;5018941;28;20033;-15
2022/10/02 07:03:16;;;;;;;8.32;6.28;;;14.80;82.00;;;;;;5034182;28;20473;-15
2022/10/02 07:06:10;;;;;;;10.23;7.10;;;14.90;81.80;;;;;;5034405;28;20036;-15
2022/10/02 07:08:54;;;;;;;9.32;6.60;;;15.10;81.60;;;;;;5034041;28;20432;-18
2022/10/02 07:11:25;;;;;;;13.48;8.10;;;15.10;81.50;;;;;;5033705;28;20060;-17
2022/10/02 07:14:21;;;;;;;11.77;7.85;;;15.10;81.20;;;;;;5033385;28;20037;-16
2022/10/02 07:17:05;;;;;;;10.40;6.93;;;15.20;81.10;;;;;;5034221;28;20091;-16
2022/10/02 07:20:17;;;;;;;8.73;6.40;;;15.20;81.20;;;;;;5034101;28;20025;-18
2022/10/02 07:23:08;;;;;;;12.05;7.95;;;15.10;81.30;;;;;;5034034;28;20029;-15
2022/10/02 07:26:19;;;;;;;10.25;7.68;;;15.20;81.30;;;;;;5034043;28;20034;-14
2022/10/02 07:29:01;;;;;;;12.65;7.30;;;15.60;81.40;;;;;;5022975;28;20042;-17
2022/10/02 07:31:44;;;;;;;9.25;7.07;;;15.90;80.90;;;;;;5034258;28;20100;-16
2022/10/02 07:34:23;;;;;;;8.27;5.83;;;16.30;80.40;;;;;;5033897;28;20041;-16
2022/10/02 07:37:07;;;;;;;8.60;6.20;;;16.70;79.80;;;;;;5033941;28;20025;-15
2022/10/02 07:39:47;;;;;;;10.68;7.60;;;16.90;79.30;;;;;;5015772;28;20120;-15
2022/10/02 07:42:21;;;;;;;10.15;7.28;;;17.10;78.90;;;;;;5033409;28;20029;-15
2022/10/02 07:45:25;;;;;;;8.48;6.13;;;17.20;78.70;;;;;;5033448;28;20040;-19
2022/10/02 07:48:14;;;;;;;8.40;6.10;;;17.20;78.70;;;;;;4934214;29;20036;-16
2022/10/02 07:51:04;;;;;;;9.07;7.07;;;17.20;78.60;;;;;;4934114;29;20126;-15
2022/10/02 07:53:55;;;;;;;8.90;6.95;;;17.20;78.80;;;;;;4934716;29;20083;-15
2022/10/02 07:56:22;;;;;;;7.07;5.45;;;17.20;78.80;;;;;;4934010;29;20050;-16
2022/10/02 07:58:57;;;;;;;11.60;7.53;;;17.20;79.00;;;;;;4934020;29;20551;-16
2022/10/02 08:01:29;;;;;;;10.30;6.70;;;17.30;78.90;;;;;;4933844;29;20411;-16
2022/10/02 08:04:00;;;;;;;9.23;7.13;;;17.40;78.70;;;;;;4934319;29;20075;-16
2022/10/02 08:06:26;;;;;;;11.05;7.78;;;17.50;78.60;;;;;;4933978;29;20106;-16
2022/10/02 08:09:07;;;;;;;11.32;7.57;;;17.60;78.30;;;;;;4933677;29;20031;-16
2022/10/02 08:11:38;;;;;;;10.02;7.78;;;17.70;78.00;;;;;;4933772;29;20043;-16
2022/10/02 08:14:37;;;;;;;10.20;7.15;;;17.70;77.90;;;;;;4933905;29;20082;-15
2022/10/02 08:17:58;;;;;;;12.02;8.77;;;17.70;78.00;;;;;;4933572;29;20392;-15
2022/10/02 08:20:30;;;;;;;10.35;7.57;;;18.00;77.80;;;;;;4886889;29;20064;-16
2022/10/02 08:23:20;;;;;;;9.85;7.53;;;18.40;77.40;;;;;;4897118;28;20041;-16
2022/10/02 08:25:59;;;;;;;10.70;7.80;;;18.50;76.70;;;;;;4956905;29;20062;-16
2022/10/02 08:28:49;;;;;;;9.65;7.43;;;18.60;76.40;;;;;;4956863;29;20512;-16
2022/10/02 08:31:15;;;;;;;8.65;6.22;;;18.70;76.20;;;;;;4957492;29;20079;-15
2022/10/02 08:33:42;;;;;;;11.95;7.22;;;18.90;75.80;;;;;;4956674;29;20074;-15
2022/10/02 08:36:52;;;;;;;10.38;6.95;;;19.20;75.50;;;;;;4956754;29;20090;-15
2022/10/02 08:39:51;;;;;;;8.15;5.50;;;19.60;74.40;;;;;;4898330;29;20555;-15
2022/10/02 08:42:35;;;;;;;10.63;5.35;;;19.90;72.90;;;;;;4956864;29;20057;-15
2022/10/02 08:45:03;;;;;;;5.72;4.25;;;20.40;70.80;;;;;;4956259;29;20038;-15
2022/10/02 08:47:39;;;;;;;7.93;5.15;;;20.90;71.50;;;;;;4956360;29;20036;-15
2022/10/02 08:50:42;;;;;;;9.05;5.50;;;21.30;70.70;;;;;;4956601;29;20035;-15
2022/10/02 08:53:29;;;;;;;8.13;5.30;;;21.60;68.20;;;;;;4956214;29;20118;-15
2022/10/02 08:56:13;;;;;;;8.80;5.47;;;21.70;65.70;;;;;;4993509;28;20435;-14
2022/10/02 08:59:04;;;;;;;7.47;5.30;;;22.10;67.40;;;;;;5036686;28;20096;-15
2022/10/02 09:02:11;;;;;;;7.63;5.80;;;22.50;64.20;;;;;;5036471;28;20040;-14
2022/10/02 09:05:18;;;;;;;6.70;5.22;;;22.80;61.90;;;;;;4998599;28;20052;-15
2022/10/02 09:08:11;;;;;;;9.40;6.72;;;23.10;61.90;;;;;;4937092;29;20032;-14
2022/10/02 09:10:51;;;;;;;8.00;5.27;;;23.10;60.80;;;;;;4936756;29;20611;-14
2022/10/02 09:13:39;;;;;;;9.32;6.28;;;23.10;59.70;;;;;;4936771;29;20740;-14
2022/10/02 09:16:10;;;;;;;10.38;6.93;;;23.20;60.40;;;;;;4937044;29;20036;-14
2022/10/02 09:18:54;;;;;;;9.35;6.13;;;23.30;60.90;;;;;;4936844;29;20031;-14
2022/10/02 09:21:57;;;;;;;10.18;6.53;;;23.30;61.40;;;;;;4936673;29;20032;-14
2022/10/02 09:25:13;;;;;;;10.77;7.43;;;23.10;61.10;;;;;;4937016;29;20036;-14
2022/10/02 09:28:05;;;;;;;10.85;8.27;;;23.10;61.30;;;;;;4936667;29;20040;-15
2022/10/02 09:30:38;;;;;;;11.20;7.18;;;23.30;60.40;;;;;;4918864;29;20527;-15
2022/10/02 09:33:22;;;;;;;;;;;23.50;59.20;;;;;;4936752;29;20083;-15
2022/10/02 09:36:23;;;;;;;11.60;6.85;;;23.60;58.80;;;;;;4935960;29;19906;-15
2022/10/02 09:39:10;;;;;;;11.75;7.65;;;23.90;58.80;;;;;;4936300;29;20476;-15
2022/10/02 09:41:48;;;;;;;13.05;8.30;;;23.90;60.00;;;;;;4984847;28;20075;-14
2022/10/02 09:44:29;;;;;;;10.07;6.90;;;24.00;57.50;;;;;;5035925;28;20116;-15
2022/10/02 09:46:55;;;;;;;9.02;6.30;;;24.10;59.70;;;;;;5035451;28;20024;-14
2022/10/02 09:49:56;;;;;;;10.68;7.53;;;24.10;58.70;;;;;;5036130;28;20108;-15
2022/10/02 09:52:31;;;;;;;9.45;6.82;;;24.20;59.10;;;;;;5035755;28;20461;-15
2022/10/02 09:55:15;;;;;;;8.13;6.20;;;24.30;58.70;;;;;;5035587;28;20156;-15
2022/10/02 09:58:08;;;;;;;10.10;6.60;;;24.50;58.60;;;;;;5035648;28;20592;-15
2022/10/02 10:00:53;;;;;;;;;;;25.00;55.50;;;;;;5036029;28;20075;-14
2022/10/02 10:03:37;;;;;;;9.40;6.15;;;25.20;53.30;;;;;;5035790;28;19996;-15
2022/10/02 10:06:49;;;;;;;10.98;7.28;;;25.60;55.70;;;;;;5035233;28;20045;-14
2022/10/02 10:09:54;;;;;;;13.95;8.60;;;25.60;53.30;;;;;;4935780;29;20047;-16
2022/10/02 10:12:41;;;;;;;7.70;5.22;;;25.40;55.20;;;;;;4936118;29;20058;-15
2022/10/02 10:15:18;;;;;;;10.43;6.57;;;25.20;56.80;;;;;;4935716;29;20024;-14
2022/10/02 10:18:03;;;;;;;11.52;8.55;;;25.10;55.80;;;;;;4935790;29;20054;-15
2022/10/02 10:21:04;;;;;;;12.82;9.15;;;25.10;56.50;;;;;;4935781;29;20039;-16
2022/10/02 10:23:35;;;;;;;11.23;8.88;;;25.30;56.50;;;;;;4914624;29;20511;-14
2022/10/02 10:26:45;;;;;;;10.85;6.88;;;25.60;56.10;;;;;;4936155;29;20120;-15
2022/10/02 10:29:13;;;;;;;8.70;6.50;;;25.90;54.00;;;;;;4935311;29;20046;-15
2022/10/02 10:31:58;;;;;;;8.55;5.80;;;26.40;53.10;;;;;;4935522;29;20036;-14
2022/10/02 10:34:41;;;;;;;9.13;6.97;;;26.80;53.00;;;;;;4935497;29;20032;-14
2022/10/02 10:40:19;;;;;;;13.87;9.83;;;27.60;50.60;;;;;;4935727;29;20079;-15
2022/10/02 10:43:09;;;;;;;10.85;8.13;;;27.90;48.30;;;;;;4935206;29;20106;-15
2022/10/02 10:45:49;;;;;;;9.07;6.32;;;27.90;47.30;;;;;;5014666;28;20034;-15
2022/10/02 10:48:18;;;;;;;8.35;5.80;;;27.90;49.90;;;;;;5033351;28;20030;-15
2022/10/02 10:50:59;;;;;;;9.35;6.47;;;28.00;49.60;;;;;;5034717;28;20057;-14
2022/10/02 10:53:37;;;;;;;7.75;5.72;;;28.40;48.70;;;;;;5034284;28;20057;-15
2022/10/02 10:56:12;;;;;;;7.70;6.18;;;28.90;48.10;;;;;;5034583;28;20099;-15
2022/10/02 10:58:51;;;;;;;11.43;8.10;;;29.30;47.50;;;;;;5034105;28;20116;-15
2022/10/02 11:01:42;;;;;;;10.35;6.68;;;29.50;45.60;;;;;;5034517;28;20044;-15
2022/10/02 11:04:24;;;;;;;9.80;6.95;;;29.60;42.30;;;;;;5034609;28;20580;-14
2022/10/02 11:07:06;;;;;;;7.97;5.20;;;29.60;42.70;;;;;;5033909;28;20041;-15
2022/10/02 11:09:38;;;;;;;8.98;6.32;;;29.40;44.70;;;;;;5034314;28;20072;-15
2022/10/02 11:12:09;;;;;;;8.32;5.47;;;29.20;44.40;;;;;;5034065;28;20041;-15
2022/10/02 11:14:54;;;;;;;9.10;5.63;;;29.10;44.60;;;;;;5034190;28;20041;-15
2022/10/02 11:17:46;;;;;;;6.15;4.40;;;28.90;44.60;;;;;;5034217;28;20029;-15
2022/10/02 11:20:19;;;;;;;5.63;3.67;;;28.70;45.00;;;;;;5033859;28;20033;-15
2022/10/02 11:23:00;;;;;;;6.70;4.05;;;28.40;47.20;;;;;;5034124;28;20021;-15
2022/10/02 11:26:00;;;;;;;6.22;3.92;;;28.50;46.90;;;;;;5034230;28;20544;-15
2022/10/02 11:28:50;;;;;;;7.40;4.97;;;29.10;43.30;;;;;;5033804;28;20388;-15
2022/10/02 11:31:46;;;;;;;5.45;4.30;;;29.60;45.40;;;;;;4987935;28;20025;-15
2022/10/02 11:34:48;;;;;;;5.05;4.13;;;30.10;44.90;;;;;;5033991;28;20109;-15
2022/10/02 11:37:30;;;;;;;7.10;4.97;;;30.80;42.20;;;;;;5033567;28;20029;-15
2022/10/02 11:40:34;;;;;;;5.18;4.03;;;31.30;42.90;;;;;;5033560;28;20437;-15
2022/10/02 11:43:08;;;;;;;7.93;4.82;;;31.80;42.40;;;;;;4978903;28;20099;-15
2022/10/02 11:45:46;;;;;;;9.48;4.80;;;32.30;41.20;;;;;;5033435;28;20374;-15
2022/10/02 11:48:24;;;;;;;8.45;5.55;;;32.60;39.90;;;;;;5034180;28;20040;-16
2022/10/02 11:50:53;;;;;;;5.78;4.22;;;32.90;38.80;;;;;;5033206;28;20021;-15
2022/10/02 11:53:30;;;;;;;6.07;4.82;;;33.20;40.00;;;;;;5033285;28;20485;-15
2022/10/02 11:56:11;;;;;;;7.13;5.22;;;33.40;37.50;;;;;;5033545;28;20044;-14
2022/10/02 11:59:17;;;;;;;11.15;5.35;;;33.50;36.70;;;;;;5032791;28;20026;-15
2022/10/02 12:02:26;;;;;;;8.40;5.72;;;33.40;36.70;;;;;;5033536;28;20029;-15
2022/10/02 12:05:03;;;;;;;6.30;4.63;;;33.30;36.70;;;;;;4933982;29;20042;-15
2022/10/02 12:07:35;;;;;;;6.25;4.90;;;33.50;39.00;;;;;;4933953;29;20080;-15
2022/10/02 12:10:18;;;;;;;6.03;4.53;;;33.90;37.80;;;;;;4933734;29;20412;-15
2022/10/02 12:13:23;;;;;;;7.40;5.40;;;34.20;37.40;;;;;;4933862;29;20028;-15
2022/10/02 12:15:52;;;;;;;7.38;4.75;;;34.50;36.90;;;;;;4933977;29;20040;-15
2022/10/02 12:18:32;;;;;;;5.03;3.85;;;34.70;36.10;;;;;;4933843;29;20114;-15
2022/10/02 12:27:08;;;;;;;5.18;3.63;;;35.00;34.70;;;;;;4934382;29;20031;-15
2022/10/02 12:29:58;;;;;;;6.25;3.63;;;35.00;33.90;;;;;;4933772;29;20048;-15
2022/10/02 12:32:44;;;;;;;4.82;3.38;;;34.60;35.30;;;;;;4933785;29;20384;-15
2022/10/02 12:35:30;;;;;;;5.60;3.50;;;33.90;36.00;;;;;;4954052;28;20022;-15
2022/10/02 12:38:20;;;;;;;3.97;3.20;;;33.30;36.30;;;;;;4993866;28;20054;-15
2022/10/02 12:41:14;;;;;;;4.43;3.28;;;32.70;36.90;;;;;;4993604;28;20093;-15
2022/10/02 12:44:08;;;;;;;3.88;3.50;;;32.20;38.20;;;;;;4993436;28;20030;-15
2022/10/02 12:46:50;;;;;;;5.43;3.42;;;32.00;39.40;;;;;;4993547;28;20028;-15
2022/10/02 12:49:34;;;;;;;4.72;3.80;;;32.30;39.10;;;;;;4992243;28;20038;-15
2022/10/02 12:52:39;;;;;;;4.38;3.65;;;32.90;38.30;;;;;;4993464;28;20070;-15
2022/10/02 12:55:27;;;;;;;6.15;4.25;;;33.30;36.60;;;;;;4993521;28;20042;-15
2022/10/02 12:58:02;;;;;;;5.47;3.70;;;33.60;34.60;;;;;;4993504;28;20069;-15
2022/10/02 13:01:04;;;;;;;6.50;4.65;;;33.90;36.10;;;;;;4993523;28;20023;-15
2022/10/02 13:04:15;;;;;;;4.45;3.10;;;34.20;35.40;;;;;;4993898;28;20032;-15
2022/10/02 13:07:02;;;;;;;5.13;3.90;;;34.50;34.80;;;;;;4993607;28;20058;-15
2022/10/02 13:09:52;;;;;;;5.30;3.70;;;34.80;34.60;;;;;;4993251;28;20038;-15
2022/10/02 13:12:49;;;;;;;6.22;3.97;;;35.00;34.10;;;;;;4995391;28;20406;-15
2022/10/02 13:15:33;;;;;;;3.80;3.40;;;35.30;32.90;;;;;;4997132;28;20478;-15
2022/10/02 13:18:42;;;;;;;4.25;3.20;;;35.60;33.40;;;;;;4996858;28;20509;-15
2022/10/02 13:21:36;;;;;;;5.13;3.63;;;36.00;32.60;;;;;;4974550;28;20035;-15
2022/10/02 13:24:39;;;;;;;4.28;3.33;;;36.20;31.70;;;;;;4997619;28;20018;-15
2022/10/02 13:27:08;;;;;;;3.90;3.28;;;36.20;31.40;;;;;;4996226;28;20513;-15
2022/10/02 13:30:05;;;;;;;5.15;3.58;;;36.30;32.40;;;;;;4996588;28;20437;-15
2022/10/02 13:32:51;;;;;;;4.70;3.60;;;36.30;32.80;;;;;;4996573;28;20030;-15
2022/10/02 13:35:37;;;;;;;4.75;3.15;;;36.40;32.40;;;;;;4996727;28;20053;-15
2022/10/02 13:38:32;;;;;;;3.22;2.78;;;36.20;31.80;;;;;;4997364;28;20034;-15
2022/10/02 13:41:00;;;;;;;4.45;2.80;;;36.00;32.50;;;;;;4996519;28;20030;-15
2022/10/02 13:43:29;;;;;;;4.43;3.20;;;35.40;32.50;;;;;;4996235;28;20026;-15
2022/10/02 13:46:22;;;;;;;4.93;3.58;;;34.70;32.80;;;;;;4996213;28;20065;-15
2022/10/02 13:49:14;;;;;;;5.00;3.50;;;34.00;34.00;;;;;;4985918;28;20130;-16
2022/10/02 13:51:49;;;;;;;3.10;2.60;;;32.70;35.20;;;;;;4996179;28;20029;-16
2022/10/02 13:54:18;;;;;;;2.65;2.45;;;31.90;37.30;;;;;;4996150;28;20085;-15
2022/10/02 13:56:44;;;;;;;4.45;3.15;;;31.50;38.20;;;;;;4996021;28;20036;-15
2022/10/02 13:59:42;;;;;;;3.50;2.80;;;31.50;38.10;;;;;;4996117;28;20018;-15
2022/10/02 14:02:41;;;;;;;5.60;4.65;;;31.70;37.60;;;;;;4996002;28;20042;-15
2022/10/02 14:05:40;;;;;;;6.40;4.32;;;31.80;35.90;;;;;;4992487;28;20046;-15
2022/10/02 14:08:27;;;;;;;3.38;3.08;;;31.40;36.60;;;;;;4995795;28;20038;-15
2022/10/02 14:11:10;;;;;;;3.03;2.65;;;31.20;38.10;;;;;;5016609;28;20144;-15
2022/10/02 14:13:45;;;;;;;;;;;31.20;38.60;;;;;;5036139;28;20101;-15
2022/10/02 14:16:26;;;;;;;4.82;3.30;;;31.40;38.20;;;;;;5035386;28;19988;-16